sensor_id;sensor_type;location;lat;lon;timestamp;pressure;altitude;pressure_sealevel;temperature
48854;BMP280;34673;52.808;17.856;2023-10-09T00:02:11;101170.56;;;6.27
48854;BMP280;34673;52.808;17.856;2023-10-09T00:04:38;101159.47;;;6.28
48854;BMP280;34673;52.808;17.856;2023-10-09T00:07:09;101161.41;;;6.38
48854;BMP280;34673;52.808;17.856;2023-10-09T00:09:38;101166.69;;;6.44
48854;BMP280;34673;52.808;17.856;2023-10-09T00:12:16;101160.81;;;6.50
48854;BMP280;34673;52.808;17.856;2023-10-09T00:14:43;101151.38;;;6.50
48854;BMP280;34673;52.808;17.856;2023-10-09T00:17:18;101139.44;;;6.52
48854;BMP280;34673;52.808;17.856;2023-10-09T00:19:49;101139.56;;;6.58
48854;BMP280;34673;52.808;17.856;2023-10-09T00:22:19;101125.78;;;6.56
48854;BMP280;34673;52.808;17.856;2023-10-09T00:24:47;101135.34;;;6.62
48854;BMP280;34673;52.808;17.856;2023-10-09T00:27:17;101128.53;;;6.62
48854;BMP280;34673;52.808;17.856;2023-10-09T00:29:50;101138.00;;;6.66
48854;BMP280;34673;52.808;17.856;2023-10-09T00:32:21;101122.59;;;6.66
48854;BMP280;34673;52.808;17.856;2023-10-09T00:34:54;101121.81;;;6.71
48854;BMP280;34673;52.808;17.856;2023-10-09T00:37:25;101110.69;;;6.72
48854;BMP280;34673;52.808;17.856;2023-10-09T00:39:53;101107.28;;;6.73
48854;BMP280;34673;52.808;17.856;2023-10-09T00:42:24;101115.88;;;6.73
48854;BMP280;34673;52.808;17.856;2023-10-09T00:44:57;101122.69;;;6.73
48854;BMP280;34673;52.808;17.856;2023-10-09T00:47:31;101119.25;;;6.71
48854;BMP280;34673;52.808;17.856;2023-10-09T00:50:04;101112.34;;;6.70
48854;BMP280;34673;52.808;17.856;2023-10-09T00:52:44;101112.34;;;6.70
48854;BMP280;34673;52.808;17.856;2023-10-09T00:55:19;101118.41;;;6.72
48854;BMP280;34673;52.808;17.856;2023-10-09T00:58:06;101103.75;;;6.68
48854;BMP280;34673;52.808;17.856;2023-10-09T01:00:42;101107.22;;;6.70
48854;BMP280;34673;52.808;17.856;2023-10-09T01:03:17;101093.41;;;6.64
48854;BMP280;34673;52.808;17.856;2023-10-09T01:05:54;101095.16;;;6.65
48854;BMP280;34673;52.808;17.856;2023-10-09T01:08:27;101090.00;;;6.65
48854;BMP280;34673;52.808;17.856;2023-10-09T01:11:14;101082.25;;;6.64
48854;BMP280;34673;52.808;17.856;2023-10-09T01:13:56;101084.94;;;6.69
48854;BMP280;34673;52.808;17.856;2023-10-09T01:16:36;101095.22;;;6.69
48854;BMP280;34673;52.808;17.856;2023-10-09T01:19:03;101077.09;;;6.62
48854;BMP280;34673;52.808;17.856;2023-10-09T01:21:40;101102.06;;;6.70
48854;BMP280;34673;52.808;17.856;2023-10-09T01:24:08;101087.44;;;6.67
48854;BMP280;34673;52.808;17.856;2023-10-09T01:26:39;101088.31;;;6.68
48854;BMP280;34673;52.808;17.856;2023-10-09T01:31:48;101091.69;;;6.63
48854;BMP280;34673;52.808;17.856;2023-10-09T01:34:32;101101.13;;;6.64
48854;BMP280;34673;52.808;17.856;2023-10-09T01:37:10;101095.16;;;6.67
48854;BMP280;34673;52.808;17.856;2023-10-09T01:39:53;101094.31;;;6.66
48854;BMP280;34673;52.808;17.856;2023-10-09T01:42:46;101080.44;;;6.58
48854;BMP280;34673;52.808;17.856;2023-10-09T01:45:14;101089.88;;;6.59
48854;BMP280;34673;52.808;17.856;2023-10-09T01:47:47;101101.91;;;6.60
48854;BMP280;34673;52.808;17.856;2023-10-09T01:50:25;101098.44;;;6.58
48854;BMP280;34673;52.808;17.856;2023-10-09T01:52:58;101089.75;;;6.53
48854;BMP280;34673;52.808;17.856;2023-10-09T01:55:30;101091.50;;;6.54
48854;BMP280;34673;52.808;17.856;2023-10-09T01:58:07;101084.56;;;6.50
48854;BMP280;34673;52.808;17.856;2023-10-09T02:01:04;101080.31;;;6.52
48854;BMP280;34673;52.808;17.856;2023-10-09T02:03:33;101083.69;;;6.50
48854;BMP280;34673;52.808;17.856;2023-10-09T02:06:09;101086.28;;;6.51
48854;BMP280;34673;52.808;17.856;2023-10-09T02:09:05;101080.34;;;6.54
48854;BMP280;34673;52.808;17.856;2023-10-09T02:11:34;101081.28;;;6.57
48854;BMP280;34673;52.808;17.856;2023-10-09T02:14:08;101086.47;;;6.60
48854;BMP280;34673;52.808;17.856;2023-10-09T02:16:49;101078.78;;;6.62
48854;BMP280;34673;52.808;17.856;2023-10-09T02:19:35;101072.72;;;6.58
48854;BMP280;34673;52.808;17.856;2023-10-09T02:22:02;101071.00;;;6.59
48854;BMP280;34673;52.808;17.856;2023-10-09T02:24:40;101065.91;;;6.60
48854;BMP280;34673;52.808;17.856;2023-10-09T02:27:17;101040.09;;;6.54
48854;BMP280;34673;52.808;17.856;2023-10-09T02:30:20;101047.03;;;6.58
48854;BMP280;34673;52.808;17.856;2023-10-09T02:32:57;101051.41;;;6.62
48854;BMP280;34673;52.808;17.856;2023-10-09T02:35:36;101051.44;;;6.65
48854;BMP280;34673;52.808;17.856;2023-10-09T02:38:05;101029.13;;;6.63
48854;BMP280;34673;52.808;17.856;2023-10-09T02:40:34;101031.66;;;6.61
48854;BMP280;34673;52.808;17.856;2023-10-09T02:43:08;101032.59;;;6.65
48854;BMP280;34673;52.808;17.856;2023-10-09T02:45:44;101016.28;;;6.64
48854;BMP280;34673;52.808;17.856;2023-10-09T02:48:17;101006.00;;;6.64
48854;BMP280;34673;52.808;17.856;2023-10-09T02:50:47;101011.19;;;6.68
48854;BMP280;34673;52.808;17.856;2023-10-09T02:53:14;100992.28;;;6.62
48854;BMP280;34673;52.808;17.856;2023-10-09T02:55:57;100976.72;;;6.56
48854;BMP280;34673;52.808;17.856;2023-10-09T02:58:41;101001.84;;;6.73
48854;BMP280;34673;52.808;17.856;2023-10-09T03:01:11;100995.84;;;6.71
48854;BMP280;34673;52.808;17.856;2023-10-09T03:03:41;100988.09;;;6.69
48854;BMP280;34673;52.808;17.856;2023-10-09T03:06:14;100983.03;;;6.74
48854;BMP280;34673;52.808;17.856;2023-10-09T03:08:46;100968.47;;;6.76
48854;BMP280;34673;52.808;17.856;2023-10-09T03:11:14;100965.94;;;6.77
48854;BMP280;34673;52.808;17.856;2023-10-09T03:13:44;100963.41;;;6.79
48854;BMP280;34673;52.808;17.856;2023-10-09T03:16:14;100965.91;;;6.74
48854;BMP280;34673;52.808;17.856;2023-10-09T03:18:52;100954.75;;;6.74
48854;BMP280;34673;52.808;17.856;2023-10-09T03:21:20;100945.28;;;6.73
48854;BMP280;34673;52.808;17.856;2023-10-09T03:23:48;100947.09;;;6.78
48854;BMP280;34673;52.808;17.856;2023-10-09T03:26:19;100949.72;;;6.80
48854;BMP280;34673;52.808;17.856;2023-10-09T03:28:48;100929.88;;;6.73
48854;BMP280;34673;52.808;17.856;2023-10-09T03:31:16;100936.91;;;6.81
48854;BMP280;34673;52.808;17.856;2023-10-09T03:33:43;100925.72;;;6.81
48854;BMP280;34673;52.808;17.856;2023-10-09T03:36:11;100918.94;;;6.86
48854;BMP280;34673;52.808;17.856;2023-10-09T03:38:39;100910.34;;;6.84
48854;BMP280;34673;52.808;17.856;2023-10-09T03:41:06;100900.94;;;6.86
48854;BMP280;34673;52.808;17.856;2023-10-09T03:43:37;100902.75;;;6.92
48854;BMP280;34673;52.808;17.856;2023-10-09T03:46:08;100898.53;;;6.95
48854;BMP280;34673;52.808;17.856;2023-10-09T03:48:42;100895.16;;;6.99
48854;BMP280;34673;52.808;17.856;2023-10-09T03:51:12;100895.97;;;6.97
48854;BMP280;34673;52.808;17.856;2023-10-09T03:53:42;100891.75;;;7.00
48854;BMP280;34673;52.808;17.856;2023-10-09T03:56:09;100886.63;;;7.00
48854;BMP280;34673;52.808;17.856;2023-10-09T03:58:41;100890.94;;;7.04
48854;BMP280;34673;52.808;17.856;2023-10-09T04:01:13;100865.88;;;6.91
48854;BMP280;34673;52.808;17.856;2023-10-09T04:03:50;100878.03;;;7.03
48854;BMP280;34673;52.808;17.856;2023-10-09T04:06:28;100871.19;;;7.00
48854;BMP280;34673;52.808;17.856;2023-10-09T04:09:03;100864.31;;;7.02
48854;BMP280;34673;52.808;17.856;2023-10-09T04:11:55;100876.38;;;7.03
48854;BMP280;34673;52.808;17.856;2023-10-09T04:14:38;100857.47;;;7.01
48854;BMP280;34673;52.808;17.856;2023-10-09T04:17:32;100847.13;;;6.98
48854;BMP280;34673;52.808;17.856;2023-10-09T04:20:01;100866.09;;;7.05
48854;BMP280;34673;52.808;17.856;2023-10-09T04:22:47;100860.94;;;7.03
48854;BMP280;34673;52.808;17.856;2023-10-09T04:25:21;100852.31;;;7.01
48854;BMP280;34673;52.808;17.856;2023-10-09T04:28:10;100850.59;;;7.00
48854;BMP280;34673;52.808;17.856;2023-10-09T04:30:46;100816.03;;;6.83
48854;BMP280;34673;52.808;17.856;2023-10-09T04:33:21;100842.00;;;6.98
48854;BMP280;34673;52.808;17.856;2023-10-09T04:36:01;100850.59;;;7.00
48854;BMP280;34673;52.808;17.856;2023-10-09T04:38:49;100840.22;;;6.94
48854;BMP280;34673;52.808;17.856;2023-10-09T04:41:43;100823.91;;;6.92
48854;BMP280;34673;52.808;17.856;2023-10-09T04:44:10;100835.97;;;6.96
48854;BMP280;34673;52.808;17.856;2023-10-09T04:46:50;100812.72;;;6.90
48854;BMP280;34673;52.808;17.856;2023-10-09T04:49:41;100821.38;;;6.95
48854;BMP280;34673;52.808;17.856;2023-10-09T04:52:23;100829.91;;;6.94
48854;BMP280;34673;52.808;17.856;2023-10-09T04:54:58;100826.41;;;6.89
48854;BMP280;34673;52.808;17.856;2023-10-09T04:57:42;100802.28;;;6.81
48854;BMP280;34673;52.808;17.856;2023-10-09T05:00:11;100805.75;;;6.83
48854;BMP280;34673;52.808;17.856;2023-10-09T05:03:03;100804.09;;;6.85
48854;BMP280;34673;52.808;17.856;2023-10-09T05:05:33;100797.16;;;6.81
48854;BMP280;34673;52.808;17.856;2023-10-09T05:08:16;100802.25;;;6.78
48854;BMP280;34673;52.808;17.856;2023-10-09T05:10:56;100810.78;;;6.74
48854;BMP280;34673;52.808;17.856;2023-10-09T05:13:35;100802.16;;;6.72
48854;BMP280;34673;52.808;17.856;2023-10-09T05:16:11;100802.13;;;6.69
48854;BMP280;34673;52.808;17.856;2023-10-09T05:18:56;100793.44;;;6.60
48854;BMP280;34673;52.808;17.856;2023-10-09T05:23:58;100809.88;;;6.72
48854;BMP280;34673;52.808;17.856;2023-10-09T05:26:44;100798.75;;;6.73
48854;BMP280;34673;52.808;17.856;2023-10-09T05:29:19;100798.75;;;6.71
48854;BMP280;34673;52.808;17.856;2023-10-09T05:31:47;100797.88;;;6.71
48854;BMP280;34673;52.808;17.856;2023-10-09T05:34:24;100765.13;;;6.57
48854;BMP280;34673;52.808;17.856;2023-10-09T05:37:02;100791.97;;;6.78
48854;BMP280;34673;52.808;17.856;2023-10-09T05:39:49;100786.09;;;6.85
48854;BMP280;34673;52.808;17.856;2023-10-09T05:42:31;100792.16;;;6.92
48854;BMP280;34673;52.808;17.856;2023-10-09T05:45:05;100790.59;;;7.01
48854;BMP280;34673;52.808;17.856;2023-10-09T05:47:52;100788.97;;;7.09
48854;BMP280;34673;52.808;17.856;2023-10-09T05:50:24;100783.91;;;7.16
48854;BMP280;34673;52.808;17.856;2023-10-09T05:52:53;100782.22;;;7.18
48854;BMP280;34673;52.808;17.856;2023-10-09T05:55:22;100783.97;;;7.22
48854;BMP280;34673;52.808;17.856;2023-10-09T05:58:05;100778.00;;;7.24
48854;BMP280;34673;52.808;17.856;2023-10-09T06:00:51;100775.44;;;7.23
48854;BMP280;34673;52.808;17.856;2023-10-09T06:03:37;100775.44;;;7.23
48854;BMP280;34673;52.808;17.856;2023-10-09T06:06:30;100767.66;;;7.18
48854;BMP280;34673;52.808;17.856;2023-10-09T06:09:04;100765.16;;;7.23
48854;BMP280;34673;52.808;17.856;2023-10-09T06:11:43;100765.19;;;7.26
48854;BMP280;34673;52.808;17.856;2023-10-09T06:14:23;100760.03;;;7.26
48854;BMP280;34673;52.808;17.856;2023-10-09T06:16:58;100755.78;;;7.28
48854;BMP280;34673;52.808;17.856;2023-10-09T06:19:30;100748.03;;;7.25
48854;BMP280;34673;52.808;17.856;2023-10-09T06:21:59;100746.34;;;7.30
48854;BMP280;34673;52.808;17.856;2023-10-09T06:24:39;100762.66;;;7.30
48854;BMP280;34673;52.808;17.856;2023-10-09T06:27:10;100767.00;;;7.33
48854;BMP280;34673;52.808;17.856;2023-10-09T06:29:42;100780.75;;;7.38
48854;BMP280;34673;52.808;17.856;2023-10-09T06:32:15;100790.25;;;7.42
48854;BMP280;34673;52.808;17.856;2023-10-09T06:34:47;100798.81;;;7.43
48854;BMP280;34673;52.808;17.856;2023-10-09T06:37:47;100794.47;;;7.37
48854;BMP280;34673;52.808;17.856;2023-10-09T06:40:31;100798.03;;;7.48
48854;BMP280;34673;52.808;17.856;2023-10-09T06:43:17;100790.28;;;7.45
48854;BMP280;34673;52.808;17.856;2023-10-09T06:45:57;100805.78;;;7.50
48854;BMP280;34673;52.808;17.856;2023-10-09T06:48:25;100777.22;;;7.30
48854;BMP280;34673;52.808;17.856;2023-10-09T06:51:09;100794.56;;;7.46
48854;BMP280;34673;52.808;17.856;2023-10-09T06:53:55;100792.97;;;7.54
48854;BMP280;34673;52.808;17.856;2023-10-09T06:56:24;100763.59;;;7.37
48854;BMP280;34673;52.808;17.856;2023-10-09T06:58:56;100794.75;;;7.62
48854;BMP280;34673;52.808;17.856;2023-10-09T07:01:27;100791.38;;;7.66
48854;BMP280;34673;52.808;17.856;2023-10-09T07:03:55;100793.13;;;7.70
48854;BMP280;34673;52.808;17.856;2023-10-09T07:06:38;100791.50;;;7.78
48854;BMP280;34673;52.808;17.856;2023-10-09T07:09:05;100789.81;;;7.80
48854;BMP280;34673;52.808;17.856;2023-10-09T07:11:42;100791.59;;;7.87
48854;BMP280;34673;52.808;17.856;2023-10-09T07:14:14;100781.31;;;7.90
48854;BMP280;34673;52.808;17.856;2023-10-09T07:19:25;100803.78;;;8.04
48854;BMP280;34673;52.808;17.856;2023-10-09T07:22:02;100807.22;;;8.06
48854;BMP280;34673;52.808;17.856;2023-10-09T07:24:43;100821.00;;;8.11
48854;BMP280;34673;52.808;17.856;2023-10-09T07:27:10;100819.31;;;8.13
48854;BMP280;34673;52.808;17.856;2023-10-09T07:29:41;100807.34;;;8.18
48854;BMP280;34673;52.808;17.856;2023-10-09T07:32:18;100800.50;;;8.20
48854;BMP280;34673;52.808;17.856;2023-10-09T07:34:51;100792.78;;;8.23
48854;BMP280;34673;52.808;17.856;2023-10-09T07:37:26;100807.41;;;8.27
48854;BMP280;34673;52.808;17.856;2023-10-09T07:40:04;100798.84;;;8.28
48854;BMP280;34673;52.808;17.856;2023-10-09T07:42:35;100788.50;;;8.24
48854;BMP280;34673;52.808;17.856;2023-10-09T07:45:02;100786.81;;;8.30
48854;BMP280;34673;52.808;17.856;2023-10-09T07:47:50;100795.47;;;8.38
48854;BMP280;34673;52.808;17.856;2023-10-09T07:50:35;100794.69;;;8.44
48854;BMP280;34673;52.808;17.856;2023-10-09T07:53:08;100800.72;;;8.45
48854;BMP280;34673;52.808;17.856;2023-10-09T07:55:42;100799.00;;;8.47
48854;BMP280;34673;52.808;17.856;2023-10-09T07:58:22;100800.75;;;8.48
48854;BMP280;34673;52.808;17.856;2023-10-09T08:03:43;100802.50;;;8.55
48854;BMP280;34673;52.808;17.856;2023-10-09T08:06:16;100799.09;;;8.56
48854;BMP280;34673;52.808;17.856;2023-10-09T08:09:03;100797.41;;;8.58
48854;BMP280;34673;52.808;17.856;2023-10-09T08:11:49;100806.88;;;8.63
48854;BMP280;34673;52.808;17.856;2023-10-09T08:14:35;100783.63;;;8.56
48854;BMP280;34673;52.808;17.856;2023-10-09T08:17:02;100805.22;;;8.73
48854;BMP280;34673;52.808;17.856;2023-10-09T08:19:51;100790.59;;;8.72
48854;BMP280;34673;52.808;17.856;2023-10-09T08:22:27;100788.88;;;8.73
48854;BMP280;34673;52.808;17.856;2023-10-09T08:24:57;100787.16;;;8.70
48854;BMP280;34673;52.808;17.856;2023-10-09T08:30:05;100788.94;;;8.83
48854;BMP280;34673;52.808;17.856;2023-10-09T08:32:59;100782.97;;;8.89
48854;BMP280;34673;52.808;17.856;2023-10-09T08:35:55;100776.94;;;8.85
48854;BMP280;34673;52.808;17.856;2023-10-09T08:38:29;100775.22;;;8.87
48854;BMP280;34673;52.808;17.856;2023-10-09T08:41:08;100782.16;;;8.98
48854;BMP280;34673;52.808;17.856;2023-10-09T08:43:48;100775.28;;;9.03
48854;BMP280;34673;52.808;17.856;2023-10-09T08:46:24;100764.97;;;9.00
48854;BMP280;34673;52.808;17.856;2023-10-09T08:48:55;100775.28;;;9.03
48854;BMP280;34673;52.808;17.856;2023-10-09T08:51:25;100768.44;;;9.08
48854;BMP280;34673;52.808;17.856;2023-10-09T08:53:53;100761.56;;;9.12
48854;BMP280;34673;52.808;17.856;2023-10-09T08:56:21;100748.69;;;9.16
48854;BMP280;34673;52.808;17.856;2023-10-09T08:58:56;100753.03;;;9.20
48854;BMP280;34673;52.808;17.856;2023-10-09T09:01:24;100744.41;;;9.15
48854;BMP280;34673;52.808;17.856;2023-10-09T09:03:53;100736.66;;;9.24
48854;BMP280;34673;52.808;17.856;2023-10-09T09:06:22;100737.56;;;9.32
48854;BMP280;34673;52.808;17.856;2023-10-09T09:08:51;100749.66;;;9.40
48854;BMP280;34673;52.808;17.856;2023-10-09T09:11:26;100747.94;;;9.45
48854;BMP280;34673;52.808;17.856;2023-10-09T09:14:04;100742.78;;;9.48
48854;BMP280;34673;52.808;17.856;2023-10-09T09:16:33;100742.78;;;9.54
48854;BMP280;34673;52.808;17.856;2023-10-09T09:19:07;100741.06;;;9.56
48854;BMP280;34673;52.808;17.856;2023-10-09T09:21:39;100725.59;;;9.59
48854;BMP280;34673;52.808;17.856;2023-10-09T09:24:08;100735.06;;;9.68
48854;BMP280;34673;52.808;17.856;2023-10-09T09:27:01;100735.91;;;9.71
48854;BMP280;34673;52.808;17.856;2023-10-09T09:29:41;100735.94;;;9.77
48854;BMP280;34673;52.808;17.856;2023-10-09T09:32:10;100735.94;;;9.84
48854;BMP280;34673;52.808;17.856;2023-10-09T09:34:51;100733.38;;;9.88
48854;BMP280;34673;52.808;17.856;2023-10-09T09:37:24;100730.78;;;9.93
48854;BMP280;34673;52.808;17.856;2023-10-09T09:39:57;100742.84;;;10.00
48854;BMP280;34673;52.808;17.856;2023-10-09T09:42:28;100748.00;;;10.06
48854;BMP280;34673;52.808;17.856;2023-10-09T09:45:00;100741.13;;;10.11
48854;BMP280;34673;52.808;17.856;2023-10-09T09:47:28;100733.38;;;10.14
48854;BMP280;34673;52.808;17.856;2023-10-09T09:49:57;100729.06;;;10.16
48854;BMP280;34673;52.808;17.856;2023-10-09T09:52:29;100728.19;;;10.22
48854;BMP280;34673;52.808;17.856;2023-10-09T09:55:10;100734.28;;;10.32
48854;BMP280;34673;52.808;17.856;2023-10-09T09:57:50;100729.09;;;10.35
48854;BMP280;34673;52.808;17.856;2023-10-09T10:00:20;100730.78;;;10.42
48854;BMP280;34673;52.808;17.856;2023-10-09T10:03:02;100718.72;;;10.47
48854;BMP280;34673;52.808;17.856;2023-10-09T10:05:33;100718.72;;;10.56
48854;BMP280;34673;52.808;17.856;2023-10-09T10:08:02;100715.25;;;10.60
48854;BMP280;34673;52.808;17.856;2023-10-09T10:13:05;100718.66;;;10.81
48854;BMP280;34673;52.808;17.856;2023-10-09T10:18:24;100705.66;;;10.90
48854;BMP280;34673;52.808;17.856;2023-10-09T10:21:11;100709.06;;;11.03
48854;BMP280;34673;52.808;17.856;2023-10-09T10:23:44;100710.75;;;11.12
48854;BMP280;34673;52.808;17.856;2023-10-09T10:26:21;100706.44;;;11.14
48854;BMP280;34673;52.808;17.856;2023-10-09T10:29:16;100709.00;;;11.21
48854;BMP280;34673;52.808;17.856;2023-10-09T10:31:57;100685.69;;;11.17
48854;BMP280;34673;52.808;17.856;2023-10-09T10:34:53;100694.28;;;11.26
48854;BMP280;34673;52.808;17.856;2023-10-09T10:37:38;100707.22;;;11.28
48854;BMP280;34673;52.808;17.856;2023-10-09T10:40:32;100709.81;;;11.28
48854;BMP280;34673;52.808;17.856;2023-10-09T10:43:17;100712.44;;;11.20
48854;BMP280;34673;52.808;17.856;2023-10-09T10:46:05;100717.63;;;11.17
48854;BMP280;34673;52.808;17.856;2023-10-09T10:48:35;100722.81;;;11.13
48854;BMP280;34673;52.808;17.856;2023-10-09T10:51:06;100722.84;;;11.09
48854;BMP280;34673;52.808;17.856;2023-10-09T10:53:33;100700.44;;;11.01
48854;BMP280;34673;52.808;17.856;2023-10-09T10:56:14;100715.09;;;11.06
48854;BMP280;34673;52.808;17.856;2023-10-09T10:58:42;100708.16;;;11.12
48854;BMP280;34673;52.808;17.856;2023-10-09T11:01:36;100699.50;;;11.17
48854;BMP280;34673;52.808;17.856;2023-10-09T11:04:41;100689.94;;;11.28
48854;BMP280;34673;52.808;17.856;2023-10-09T11:07:12;100688.22;;;11.32
48854;BMP280;34673;52.808;17.856;2023-10-09T11:09:49;100683.00;;;11.37
48854;BMP280;34673;52.808;17.856;2023-10-09T11:15:13;100687.19;;;11.54
48854;BMP280;34673;52.808;17.856;2023-10-09T11:18:03;100659.59;;;11.50
48854;BMP280;34673;52.808;17.856;2023-10-09T11:20:44;100659.50;;;11.63
48854;BMP280;34673;52.808;17.856;2023-10-09T11:23:32;100664.63;;;11.69
48854;BMP280;34673;52.808;17.856;2023-10-09T11:26:07;100659.41;;;11.78
48854;BMP280;34673;52.808;17.856;2023-10-09T11:29:11;100669.66;;;11.93
48854;BMP280;34673;52.808;17.856;2023-10-09T11:32:06;100652.31;;;11.98
48854;BMP280;34673;52.808;17.856;2023-10-09T11:34:36;100647.19;;;11.95
48854;BMP280;34673;52.808;17.856;2023-10-09T11:39:38;100643.56;;;12.12
48854;BMP280;34673;52.808;17.856;2023-10-09T11:42:26;100637.50;;;12.16
48854;BMP280;34673;52.808;17.856;2023-10-09T11:45:05;100640.81;;;12.26
48854;BMP280;34673;52.808;17.856;2023-10-09T11:47:54;100639.81;;;12.39
48854;BMP280;34673;52.808;17.856;2023-10-09T11:50:44;100643.22;;;12.42
48854;BMP280;34673;52.808;17.856;2023-10-09T11:53:41;100643.28;;;12.39
48854;BMP280;34673;52.808;17.856;2023-10-09T11:56:22;100664.03;;;12.39
48854;BMP280;34673;52.808;17.856;2023-10-09T11:58:49;100652.91;;;12.30
48854;BMP280;34673;52.808;17.856;2023-10-09T12:01:20;100664.16;;;12.27
48854;BMP280;34673;52.808;17.856;2023-10-09T12:03:51;100651.31;;;12.15
48854;BMP280;34673;52.808;17.856;2023-10-09T12:06:20;100647.78;;;12.20
48854;BMP280;34673;52.808;17.856;2023-10-09T12:08:56;100645.19;;;12.22
48854;BMP280;34673;52.808;17.856;2023-10-09T12:11:25;100655.56;;;12.20
48854;BMP280;34673;52.808;17.856;2023-10-09T12:13:58;100650.41;;;12.19
48854;BMP280;34673;52.808;17.856;2023-10-09T12:16:37;100652.13;;;12.20
48854;BMP280;34673;52.808;17.856;2023-10-09T12:19:07;100652.13;;;12.20
48854;BMP280;34673;52.808;17.856;2023-10-09T12:21:36;100635.66;;;12.24
48854;BMP280;34673;52.808;17.856;2023-10-09T12:24:03;100638.28;;;12.21
48854;BMP280;34673;52.808;17.856;2023-10-09T12:26:39;100631.41;;;12.17
48854;BMP280;34673;52.808;17.856;2023-10-09T12:29:07;100638.31;;;12.18
48854;BMP280;34673;52.808;17.856;2023-10-09T12:31:38;100645.16;;;12.25
48854;BMP280;34673;52.808;17.856;2023-10-09T12:34:05;100642.53;;;12.30
48854;BMP280;34673;52.808;17.856;2023-10-09T12:36:32;100642.50;;;12.31
48854;BMP280;34673;52.808;17.856;2023-10-09T12:39:04;100631.25;;;12.29
48854;BMP280;34673;52.808;17.856;2023-10-09T12:41:32;100622.66;;;12.27
48854;BMP280;34673;52.808;17.856;2023-10-09T12:44:02;100620.09;;;12.24
48854;BMP280;34673;52.808;17.856;2023-10-09T12:46:29;100619.25;;;12.22
48854;BMP280;34673;52.808;17.856;2023-10-09T12:49:05;100613.22;;;12.18
48854;BMP280;34673;52.808;17.856;2023-10-09T12:51:33;100600.28;;;12.17
48854;BMP280;34673;52.808;17.856;2023-10-09T12:54:00;100595.19;;;12.08
48854;BMP280;34673;52.808;17.856;2023-10-09T12:56:28;100582.31;;;12.00
48854;BMP280;34673;52.808;17.856;2023-10-09T12:59:05;100596.91;;;12.09
48854;BMP280;34673;52.808;17.856;2023-10-09T13:01:34;100596.88;;;12.10
48854;BMP280;34673;52.808;17.856;2023-10-09T13:04:14;100586.53;;;12.09
48854;BMP280;34673;52.808;17.856;2023-10-09T13:06:45;100574.44;;;12.08
48854;BMP280;34673;52.808;17.856;2023-10-09T13:09:15;100579.63;;;12.08
48854;BMP280;34673;52.808;17.856;2023-10-09T13:11:43;100573.66;;;12.03
48854;BMP280;34673;52.808;17.856;2023-10-09T13:14:10;100579.66;;;12.05
48854;BMP280;34673;52.808;17.856;2023-10-09T13:16:44;100571.91;;;12.02
48854;BMP280;34673;52.808;17.856;2023-10-09T13:19:12;100574.44;;;12.11
48854;BMP280;34673;52.808;17.856;2023-10-09T13:21:40;100569.28;;;12.05
48854;BMP280;34673;52.808;17.856;2023-10-09T13:24:07;100588.25;;;12.11
48854;BMP280;34673;52.808;17.856;2023-10-09T13:26:43;100573.63;;;12.06
48854;BMP280;34673;52.808;17.856;2023-10-09T13:29:18;100560.72;;;11.96
48854;BMP280;34673;52.808;17.856;2023-10-09T13:31:52;100574.56;;;11.98
48854;BMP280;34673;52.808;17.856;2023-10-09T13:34:30;100563.44;;;11.89
48854;BMP280;34673;52.808;17.856;2023-10-09T13:37:00;100579.81;;;11.92
48854;BMP280;34673;52.808;17.856;2023-10-09T13:39:38;100572.88;;;11.91
48854;BMP280;34673;52.808;17.856;2023-10-09T13:42:07;100566.03;;;11.87
48854;BMP280;34673;52.808;17.856;2023-10-09T13:44:34;100581.53;;;11.90
48854;BMP280;34673;52.808;17.856;2023-10-09T13:47:04;100579.81;;;11.92
48854;BMP280;34673;52.808;17.856;2023-10-09T13:49:47;100572.88;;;11.91
48854;BMP280;34673;52.808;17.856;2023-10-09T13:52:19;100579.84;;;11.89
48854;BMP280;34673;52.808;17.856;2023-10-09T13:54:49;100586.72;;;11.90
48854;BMP280;34673;52.808;17.856;2023-10-09T13:57:20;100574.69;;;11.86
48854;BMP280;34673;52.808;17.856;2023-10-09T13:59:58;100575.53;;;11.82
48854;BMP280;34673;52.808;17.856;2023-10-09T14:02:27;100574.69;;;11.86
48854;BMP280;34673;52.808;17.856;2023-10-09T14:04:56;100565.19;;;11.82
48854;BMP280;34673;52.808;17.856;2023-10-09T14:07:28;100581.59;;;11.84
48854;BMP280;34673;52.808;17.856;2023-10-09T14:09:55;100578.13;;;11.82
48854;BMP280;34673;52.808;17.856;2023-10-09T14:12:22;100581.66;;;11.75
48854;BMP280;34673;52.808;17.856;2023-10-09T14:14:52;100592.03;;;11.72
48854;BMP280;34673;52.808;17.856;2023-10-09T14:17:22;100604.16;;;11.73
48854;BMP280;34673;52.808;17.856;2023-10-09T14:19:55;100570.66;;;11.51
48854;BMP280;34673;52.808;17.856;2023-10-09T14:22:28;100587.75;;;11.69
48854;BMP280;34673;52.808;17.856;2023-10-09T14:24:56;100592.09;;;11.66
48854;BMP280;34673;52.808;17.856;2023-10-09T14:27:25;100605.97;;;11.62
48854;BMP280;34673;52.808;17.856;2023-10-09T14:29:55;100599.13;;;11.54
48854;BMP280;34673;52.808;17.856;2023-10-09T14:32:28;100590.53;;;11.49
48854;BMP280;34673;52.808;17.856;2023-10-09T14:35:11;100600.84;;;11.52
48854;BMP280;34673;52.808;17.856;2023-10-09T14:37:41;100595.69;;;11.49
48854;BMP280;34673;52.808;17.856;2023-10-09T14:40:09;100583.66;;;11.42
48854;BMP280;34673;52.808;17.856;2023-10-09T14:42:48;100586.31;;;11.38
48854;BMP280;34673;52.808;17.856;2023-10-09T14:45:26;100595.88;;;11.28
48854;BMP280;34673;52.808;17.856;2023-10-09T14:47:53;100606.25;;;11.25
48854;BMP280;34673;52.808;17.856;2023-10-09T14:50:22;100606.28;;;11.19
48854;BMP280;34673;52.808;17.856;2023-10-09T14:52:49;100621.00;;;11.12
48854;BMP280;34673;52.808;17.856;2023-10-09T14:55:19;100608.09;;;11.01
48854;BMP280;34673;52.808;17.856;2023-10-09T14:57:56;100616.78;;;10.93
48854;BMP280;34673;52.808;17.856;2023-10-09T15:00:26;100613.41;;;10.83
48854;BMP280;34673;52.808;17.856;2023-10-09T15:02:53;100606.53;;;10.76